sensor_id;sensor_type;location;lat;lon;timestamp;P1;durP1;ratioP1;P2;durP2;ratioP2
21152;SDS011;10734;44.792;20.482;2023-01-25T00:01:50;20.60;;;10.35;;
21152;SDS011;10734;44.792;20.482;2023-01-25T00:04:18;22.95;;;9.05;;
21152;SDS011;10734;44.792;20.482;2023-01-25T00:06:45;19.95;;;8.90;;
21152;SDS011;10734;44.792;20.482;2023-01-25T00:09:11;23.17;;;10.98;;
21152;SDS011;10734;44.792;20.482;2023-01-25T00:11:38;19.77;;;9.02;;
21152;SDS011;10734;44.792;20.482;2023-01-25T00:14:05;24.35;;;10.32;;
21152;SDS011;10734;44.792;20.482;2023-01-25T00:16:31;29.50;;;10.88;;
21152;SDS011;10734;44.792;20.482;2023-01-25T00:18:58;21.70;;;9.30;;
21152;SDS011;10734;44.792;20.482;2023-01-25T00:21:25;25.48;;;10.10;;
21152;SDS011;10734;44.792;20.482;2023-01-25T00:23:51;21.85;;;10.18;;
21152;SDS011;10734;44.792;20.482;2023-01-25T00:26:18;22.60;;;10.15;;
21152;SDS011;10734;44.792;20.482;2023-01-25T00:28:48;21.13;;;9.90;;
21152;SDS011;10734;44.792;20.482;2023-01-25T00:31:16;22.98;;;9.98;;
21152;SDS011;10734;44.792;20.482;2023-01-25T00:33:50;21.40;;;9.48;;
21152;SDS011;10734;44.792;20.482;2023-01-25T00:36:25;13.00;;;6.57;;
21152;SDS011;10734;44.792;20.482;2023-01-25T00:38:53;22.88;;;8.77;;
21152;SDS011;10734;44.792;20.482;2023-01-25T00:41:19;19.80;;;9.52;;
21152;SDS011;10734;44.792;20.482;2023-01-25T00:43:46;19.02;;;9.02;;
21152;SDS011;10734;44.792;20.482;2023-01-25T00:46:15;21.00;;;9.85;;
21152;SDS011;10734;44.792;20.482;2023-01-25T00:48:42;18.98;;;9.13;;
21152;SDS011;10734;44.792;20.482;2023-01-25T00:51:09;22.23;;;9.40;;
21152;SDS011;10734;44.792;20.482;2023-01-25T00:53:35;17.58;;;8.43;;
21152;SDS011;10734;44.792;20.482;2023-01-25T00:56:02;16.23;;;8.13;;
21152;SDS011;10734;44.792;20.482;2023-01-25T00:58:29;16.60;;;8.50;;
21152;SDS011;10734;44.792;20.482;2023-01-25T01:00:55;21.73;;;9.00;;
21152;SDS011;10734;44.792;20.482;2023-01-25T01:03:22;15.05;;;7.68;;
21152;SDS011;10734;44.792;20.482;2023-01-25T01:05:58;16.98;;;8.98;;
21152;SDS011;10734;44.792;20.482;2023-01-25T01:08:25;24.77;;;9.27;;
21152;SDS011;10734;44.792;20.482;2023-01-25T01:10:57;17.63;;;7.95;;
21152;SDS011;10734;44.792;20.482;2023-01-25T01:13:23;20.98;;;8.30;;
21152;SDS011;10734;44.792;20.482;2023-01-25T01:15:49;20.33;;;8.80;;
21152;SDS011;10734;44.792;20.482;2023-01-25T01:18:16;22.58;;;10.35;;
21152;SDS011;10734;44.792;20.482;2023-01-25T01:20:49;24.90;;;10.18;;
21152;SDS011;10734;44.792;20.482;2023-01-25T01:23:16;21.42;;;9.35;;
21152;SDS011;10734;44.792;20.482;2023-01-25T01:25:42;19.33;;;8.88;;
21152;SDS011;10734;44.792;20.482;2023-01-25T01:28:09;16.85;;;8.35;;
21152;SDS011;10734;44.792;20.482;2023-01-25T01:30:35;22.75;;;9.35;;
21152;SDS011;10734;44.792;20.482;2023-01-25T01:33:02;19.77;;;9.15;;
21152;SDS011;10734;44.792;20.482;2023-01-25T01:35:29;17.60;;;8.63;;
21152;SDS011;10734;44.792;20.482;2023-01-25T01:37:55;20.05;;;9.57;;
21152;SDS011;10734;44.792;20.482;2023-01-25T01:40:22;25.77;;;9.85;;
21152;SDS011;10734;44.792;20.482;2023-01-25T01:45:44;22.83;;;10.52;;
21152;SDS011;10734;44.792;20.482;2023-01-25T01:50:46;25.48;;;11.00;;
21152;SDS011;10734;44.792;20.482;2023-01-25T01:53:16;19.63;;;9.45;;
21152;SDS011;10734;44.792;20.482;2023-01-25T01:55:43;20.45;;;9.48;;
21152;SDS011;10734;44.792;20.482;2023-01-25T01:58:09;22.15;;;9.93;;
21152;SDS011;10734;44.792;20.482;2023-01-25T02:00:36;22.25;;;10.10;;
21152;SDS011;10734;44.792;20.482;2023-01-25T02:03:04;20.25;;;9.48;;
21152;SDS011;10734;44.792;20.482;2023-01-25T02:07:57;20.65;;;9.55;;
21152;SDS011;10734;44.792;20.482;2023-01-25T02:10:24;19.95;;;8.98;;
21152;SDS011;10734;44.792;20.482;2023-01-25T02:12:52;18.77;;;8.73;;
21152;SDS011;10734;44.792;20.482;2023-01-25T02:15:19;21.95;;;9.48;;
21152;SDS011;10734;44.792;20.482;2023-01-25T02:17:46;20.20;;;9.35;;
21152;SDS011;10734;44.792;20.482;2023-01-25T02:20:28;20.35;;;9.02;;
21152;SDS011;10734;44.792;20.482;2023-01-25T02:25:21;26.27;;;10.32;;
21152;SDS011;10734;44.792;20.482;2023-01-25T02:27:50;19.20;;;8.10;;
21152;SDS011;10734;44.792;20.482;2023-01-25T02:30:18;16.92;;;7.95;;
21152;SDS011;10734;44.792;20.482;2023-01-25T02:32:44;19.92;;;9.80;;
21152;SDS011;10734;44.792;20.482;2023-01-25T02:35:18;24.20;;;9.63;;
21152;SDS011;10734;44.792;20.482;2023-01-25T02:37:44;17.63;;;8.98;;
21152;SDS011;10734;44.792;20.482;2023-01-25T02:40:11;20.27;;;8.70;;
21152;SDS011;10734;44.792;20.482;2023-01-25T02:42:40;18.85;;;8.77;;
21152;SDS011;10734;44.792;20.482;2023-01-25T02:45:08;18.02;;;8.57;;
21152;SDS011;10734;44.792;20.482;2023-01-25T02:47:36;17.58;;;8.50;;
21152;SDS011;10734;44.792;20.482;2023-01-25T02:50:03;19.10;;;8.70;;
21152;SDS011;10734;44.792;20.482;2023-01-25T02:52:30;21.73;;;10.10;;
21152;SDS011;10734;44.792;20.482;2023-01-25T02:54:56;19.10;;;9.60;;
21152;SDS011;10734;44.792;20.482;2023-01-25T02:57:23;20.08;;;9.00;;
21152;SDS011;10734;44.792;20.482;2023-01-25T02:59:49;21.50;;;10.15;;
21152;SDS011;10734;44.792;20.482;2023-01-25T03:02:16;18.20;;;8.57;;
21152;SDS011;10734;44.792;20.482;2023-01-25T03:04:42;17.15;;;8.00;;
21152;SDS011;10734;44.792;20.482;2023-01-25T03:07:09;17.27;;;8.45;;
21152;SDS011;10734;44.792;20.482;2023-01-25T03:09:35;21.80;;;9.02;;
21152;SDS011;10734;44.792;20.482;2023-01-25T03:12:02;24.63;;;8.95;;
21152;SDS011;10734;44.792;20.482;2023-01-25T03:14:28;17.05;;;8.85;;
21152;SDS011;10734;44.792;20.482;2023-01-25T03:16:55;16.27;;;7.82;;
21152;SDS011;10734;44.792;20.482;2023-01-25T03:19:21;23.48;;;8.20;;
21152;SDS011;10734;44.792;20.482;2023-01-25T03:21:48;20.00;;;8.05;;
21152;SDS011;10734;44.792;20.482;2023-01-25T03:24:15;18.55;;;8.20;;
21152;SDS011;10734;44.792;20.482;2023-01-25T03:26:41;17.35;;;8.20;;
21152;SDS011;10734;44.792;20.482;2023-01-25T03:29:26;13.80;;;6.47;;
21152;SDS011;10734;44.792;20.482;2023-01-25T03:31:53;14.07;;;7.10;;
21152;SDS011;10734;44.792;20.482;2023-01-25T03:34:19;14.73;;;7.38;;
21152;SDS011;10734;44.792;20.482;2023-01-25T03:36:46;19.85;;;7.75;;
21152;SDS011;10734;44.792;20.482;2023-01-25T03:39:12;12.15;;;6.65;;
21152;SDS011;10734;44.792;20.482;2023-01-25T03:41:39;14.52;;;6.88;;
21152;SDS011;10734;44.792;20.482;2023-01-25T03:44:05;14.82;;;7.55;;
21152;SDS011;10734;44.792;20.482;2023-01-25T03:46:32;14.98;;;6.65;;
21152;SDS011;10734;44.792;20.482;2023-01-25T03:48:58;13.60;;;6.53;;
21152;SDS011;10734;44.792;20.482;2023-01-25T03:51:25;15.45;;;7.97;;
21152;SDS011;10734;44.792;20.482;2023-01-25T03:53:51;14.43;;;7.90;;
21152;SDS011;10734;44.792;20.482;2023-01-25T03:56:18;16.67;;;7.57;;
21152;SDS011;10734;44.792;20.482;2023-01-25T03:58:45;14.93;;;6.80;;
21152;SDS011;10734;44.792;20.482;2023-01-25T04:01:12;17.63;;;7.85;;
21152;SDS011;10734;44.792;20.482;2023-01-25T04:03:39;16.77;;;8.02;;
21152;SDS011;10734;44.792;20.482;2023-01-25T04:06:05;14.57;;;7.43;;
21152;SDS011;10734;44.792;20.482;2023-01-25T04:08:32;21.08;;;9.45;;
21152;SDS011;10734;44.792;20.482;2023-01-25T04:13:28;17.75;;;8.50;;
21152;SDS011;10734;44.792;20.482;2023-01-25T04:15:54;16.10;;;7.82;;
21152;SDS011;10734;44.792;20.482;2023-01-25T04:18:21;14.00;;;7.63;;
21152;SDS011;10734;44.792;20.482;2023-01-25T04:20:51;18.20;;;7.75;;
21152;SDS011;10734;44.792;20.482;2023-01-25T04:23:18;14.63;;;7.30;;
21152;SDS011;10734;44.792;20.482;2023-01-25T04:25:55;20.27;;;7.82;;
21152;SDS011;10734;44.792;20.482;2023-01-25T04:28:22;18.83;;;7.75;;
21152;SDS011;10734;44.792;20.482;2023-01-25T04:30:48;18.85;;;7.88;;
21152;SDS011;10734;44.792;20.482;2023-01-25T04:33:15;18.35;;;8.93;;
21152;SDS011;10734;44.792;20.482;2023-01-25T04:35:42;18.20;;;8.52;;
21152;SDS011;10734;44.792;20.482;2023-01-25T04:38:09;15.02;;;7.82;;
21152;SDS011;10734;44.792;20.482;2023-01-25T04:40:35;14.57;;;7.50;;
21152;SDS011;10734;44.792;20.482;2023-01-25T04:43:02;17.08;;;7.57;;
21152;SDS011;10734;44.792;20.482;2023-01-25T04:45:28;18.63;;;8.30;;
21152;SDS011;10734;44.792;20.482;2023-01-25T04:47:56;24.85;;;9.38;;
21152;SDS011;10734;44.792;20.482;2023-01-25T04:50:23;17.48;;;8.10;;
21152;SDS011;10734;44.792;20.482;2023-01-25T04:52:49;16.85;;;7.70;;
21152;SDS011;10734;44.792;20.482;2023-01-25T04:55:16;17.35;;;7.90;;
21152;SDS011;10734;44.792;20.482;2023-01-25T04:57:42;19.15;;;8.52;;
21152;SDS011;10734;44.792;20.482;2023-01-25T05:00:09;19.23;;;8.73;;
21152;SDS011;10734;44.792;20.482;2023-01-25T05:02:36;17.60;;;8.60;;
21152;SDS011;10734;44.792;20.482;2023-01-25T05:05:02;22.20;;;10.13;;
21152;SDS011;10734;44.792;20.482;2023-01-25T05:07:29;21.02;;;9.07;;
21152;SDS011;10734;44.792;20.482;2023-01-25T05:09:55;17.80;;;8.30;;
21152;SDS011;10734;44.792;20.482;2023-01-25T05:12:22;20.45;;;9.50;;
21152;SDS011;10734;44.792;20.482;2023-01-25T05:14:48;20.05;;;8.55;;
21152;SDS011;10734;44.792;20.482;2023-01-25T05:17:15;23.98;;;9.23;;
21152;SDS011;10734;44.792;20.482;2023-01-25T05:19:42;22.30;;;9.68;;
21152;SDS011;10734;44.792;20.482;2023-01-25T05:22:15;24.05;;;8.85;;
21152;SDS011;10734;44.792;20.482;2023-01-25T05:24:42;18.73;;;8.52;;
21152;SDS011;10734;44.792;20.482;2023-01-25T05:27:11;16.02;;;7.95;;
21152;SDS011;10734;44.792;20.482;2023-01-25T05:29:39;18.80;;;8.90;;
21152;SDS011;10734;44.792;20.482;2023-01-25T05:32:09;19.50;;;8.80;;
21152;SDS011;10734;44.792;20.482;2023-01-25T05:34:36;21.98;;;9.65;;
21152;SDS011;10734;44.792;20.482;2023-01-25T05:37:03;22.38;;;9.57;;
21152;SDS011;10734;44.792;20.482;2023-01-25T05:39:30;16.95;;;8.55;;
21152;SDS011;10734;44.792;20.482;2023-01-25T05:41:57;20.85;;;9.13;;
21152;SDS011;10734;44.792;20.482;2023-01-25T05:44:24;20.95;;;9.40;;
21152;SDS011;10734;44.792;20.482;2023-01-25T05:46:51;18.08;;;9.10;;
21152;SDS011;10734;44.792;20.482;2023-01-25T05:49:18;19.83;;;10.27;;
21152;SDS011;10734;44.792;20.482;2023-01-25T05:51:45;25.90;;;10.52;;
21152;SDS011;10734;44.792;20.482;2023-01-25T05:54:12;19.60;;;9.75;;
21152;SDS011;10734;44.792;20.482;2023-01-25T05:56:40;22.42;;;10.43;;
21152;SDS011;10734;44.792;20.482;2023-01-25T05:59:06;19.52;;;9.18;;
21152;SDS011;10734;44.792;20.482;2023-01-25T06:01:33;23.95;;;10.15;;
21152;SDS011;10734;44.792;20.482;2023-01-25T06:03:59;19.92;;;9.65;;
21152;SDS011;10734;44.792;20.482;2023-01-25T06:06:26;25.67;;;9.98;;
21152;SDS011;10734;44.792;20.482;2023-01-25T06:08:52;27.00;;;10.55;;
21152;SDS011;10734;44.792;20.482;2023-01-25T06:11:21;29.20;;;10.63;;
21152;SDS011;10734;44.792;20.482;2023-01-25T06:13:48;25.20;;;11.23;;
21152;SDS011;10734;44.792;20.482;2023-01-25T06:16:15;25.48;;;11.27;;
21152;SDS011;10734;44.792;20.482;2023-01-25T06:18:42;29.63;;;10.25;;
21152;SDS011;10734;44.792;20.482;2023-01-25T06:21:09;24.98;;;10.90;;
21152;SDS011;10734;44.792;20.482;2023-01-25T06:23:36;28.02;;;12.10;;
21152;SDS011;10734;44.792;20.482;2023-01-25T06:26:07;27.58;;;10.95;;
21152;SDS011;10734;44.792;20.482;2023-01-25T06:28:35;25.70;;;12.13;;
21152;SDS011;10734;44.792;20.482;2023-01-25T06:31:03;28.83;;;12.05;;
21152;SDS011;10734;44.792;20.482;2023-01-25T06:33:29;28.10;;;11.57;;
21152;SDS011;10734;44.792;20.482;2023-01-25T06:35:59;28.27;;;11.85;;
21152;SDS011;10734;44.792;20.482;2023-01-25T06:38:26;22.30;;;11.10;;
21152;SDS011;10734;44.792;20.482;2023-01-25T06:40:52;27.73;;;12.93;;
21152;SDS011;10734;44.792;20.482;2023-01-25T06:43:19;24.45;;;11.48;;
21152;SDS011;10734;44.792;20.482;2023-01-25T06:45:45;29.80;;;12.80;;
21152;SDS011;10734;44.792;20.482;2023-01-25T06:48:12;28.08;;;11.45;;
21152;SDS011;10734;44.792;20.482;2023-01-25T06:50:39;28.55;;;12.80;;
21152;SDS011;10734;44.792;20.482;2023-01-25T06:53:05;35.20;;;12.90;;
21152;SDS011;10734;44.792;20.482;2023-01-25T06:55:32;31.75;;;13.32;;
21152;SDS011;10734;44.792;20.482;2023-01-25T06:57:59;38.00;;;16.40;;
21152;SDS011;10734;44.792;20.482;2023-01-25T07:00:26;39.80;;;18.80;;
21152;SDS011;10734;44.792;20.482;2023-01-25T07:02:52;45.53;;;18.65;;
21152;SDS011;10734;44.792;20.482;2023-01-25T07:05:19;28.38;;;13.07;;
21152;SDS011;10734;44.792;20.482;2023-01-25T07:07:45;26.48;;;13.48;;
21152;SDS011;10734;44.792;20.482;2023-01-25T07:10:12;32.58;;;13.93;;
21152;SDS011;10734;44.792;20.482;2023-01-25T07:12:38;35.08;;;13.05;;
21152;SDS011;10734;44.792;20.482;2023-01-25T07:15:05;29.92;;;13.75;;
21152;SDS011;10734;44.792;20.482;2023-01-25T07:17:32;26.98;;;12.32;;
21152;SDS011;10734;44.792;20.482;2023-01-25T07:19:59;25.65;;;13.68;;
21152;SDS011;10734;44.792;20.482;2023-01-25T07:22:26;25.65;;;12.68;;
21152;SDS011;10734;44.792;20.482;2023-01-25T07:24:52;39.40;;;16.38;;
21152;SDS011;10734;44.792;20.482;2023-01-25T07:27:19;45.72;;;18.85;;
21152;SDS011;10734;44.792;20.482;2023-01-25T07:29:45;34.83;;;13.13;;
21152;SDS011;10734;44.792;20.482;2023-01-25T07:32:12;45.95;;;17.58;;
21152;SDS011;10734;44.792;20.482;2023-01-25T07:34:41;61.67;;;24.08;;
21152;SDS011;10734;44.792;20.482;2023-01-25T07:37:08;33.45;;;15.45;;
21152;SDS011;10734;44.792;20.482;2023-01-25T07:39:35;26.42;;;12.63;;
21152;SDS011;10734;44.792;20.482;2023-01-25T07:42:01;32.97;;;12.00;;
21152;SDS011;10734;44.792;20.482;2023-01-25T07:44:28;19.98;;;10.18;;
21152;SDS011;10734;44.792;20.482;2023-01-25T07:46:55;24.25;;;11.15;;
21152;SDS011;10734;44.792;20.482;2023-01-25T07:49:21;30.52;;;11.55;;
21152;SDS011;10734;44.792;20.482;2023-01-25T07:51:48;34.60;;;11.95;;
21152;SDS011;10734;44.792;20.482;2023-01-25T07:54:14;22.67;;;10.88;;
21152;SDS011;10734;44.792;20.482;2023-01-25T07:56:41;30.88;;;12.10;;
21152;SDS011;10734;44.792;20.482;2023-01-25T07:59:08;24.30;;;11.35;;
21152;SDS011;10734;44.792;20.482;2023-01-25T08:01:35;28.45;;;12.57;;
21152;SDS011;10734;44.792;20.482;2023-01-25T08:04:02;25.65;;;11.93;;
21152;SDS011;10734;44.792;20.482;2023-01-25T08:06:30;25.60;;;12.52;;
21152;SDS011;10734;44.792;20.482;2023-01-25T08:09:02;30.30;;;12.07;;
21152;SDS011;10734;44.792;20.482;2023-01-25T08:11:30;31.50;;;12.80;;
21152;SDS011;10734;44.792;20.482;2023-01-25T08:13:56;33.45;;;12.85;;
21152;SDS011;10734;44.792;20.482;2023-01-25T08:16:24;25.55;;;11.88;;
21152;SDS011;10734;44.792;20.482;2023-01-25T08:18:55;33.13;;;14.65;;
21152;SDS011;10734;44.792;20.482;2023-01-25T08:21:22;18.77;;;10.57;;
21152;SDS011;10734;44.792;20.482;2023-01-25T08:23:56;30.25;;;12.77;;
21152;SDS011;10734;44.792;20.482;2023-01-25T08:26:23;23.48;;;10.45;;
21152;SDS011;10734;44.792;20.482;2023-01-25T08:28:50;23.40;;;9.93;;
21152;SDS011;10734;44.792;20.482;2023-01-25T08:31:20;27.10;;;10.88;;
21152;SDS011;10734;44.792;20.482;2023-01-25T08:33:47;20.50;;;10.43;;
21152;SDS011;10734;44.792;20.482;2023-01-25T08:36:14;19.27;;;9.27;;
21152;SDS011;10734;44.792;20.482;2023-01-25T08:38:41;23.48;;;9.30;;
21152;SDS011;10734;44.792;20.482;2023-01-25T08:41:09;23.38;;;9.55;;
21152;SDS011;10734;44.792;20.482;2023-01-25T08:43:36;27.35;;;12.60;;
21152;SDS011;10734;44.792;20.482;2023-01-25T08:46:03;28.85;;;13.18;;
21152;SDS011;10734;44.792;20.482;2023-01-25T08:48:30;23.15;;;11.35;;
21152;SDS011;10734;44.792;20.482;2023-01-25T08:50:57;23.10;;;10.23;;
21152;SDS011;10734;44.792;20.482;2023-01-25T08:53:23;22.80;;;10.13;;
21152;SDS011;10734;44.792;20.482;2023-01-25T08:55:50;23.08;;;9.20;;
21152;SDS011;10734;44.792;20.482;2023-01-25T08:58:16;20.23;;;9.55;;
21152;SDS011;10734;44.792;20.482;2023-01-25T09:00:45;21.10;;;9.40;;
21152;SDS011;10734;44.792;20.482;2023-01-25T09:03:11;18.73;;;9.55;;
21152;SDS011;10734;44.792;20.482;2023-01-25T09:05:38;22.52;;;10.95;;
21152;SDS011;10734;44.792;20.482;2023-01-25T09:08:05;22.90;;;9.27;;
21152;SDS011;10734;44.792;20.482;2023-01-25T09:10:33;26.17;;;9.15;;
21152;SDS011;10734;44.792;20.482;2023-01-25T09:12:59;22.92;;;11.50;;
21152;SDS011;10734;44.792;20.482;2023-01-25T09:15:26;23.60;;;10.18;;
21152;SDS011;10734;44.792;20.482;2023-01-25T09:17:53;20.58;;;9.48;;
21152;SDS011;10734;44.792;20.482;2023-01-25T09:20:20;20.08;;;9.88;;
21152;SDS011;10734;44.792;20.482;2023-01-25T09:22:47;19.77;;;9.95;;
21152;SDS011;10734;44.792;20.482;2023-01-25T09:25:13;21.63;;;11.25;;
21152;SDS011;10734;44.792;20.482;2023-01-25T09:27:40;23.30;;;10.15;;
21152;SDS011;10734;44.792;20.482;2023-01-25T09:30:09;17.42;;;8.85;;
21152;SDS011;10734;44.792;20.482;2023-01-25T09:32:44;24.25;;;11.10;;
21152;SDS011;10734;44.792;20.482;2023-01-25T09:35:10;29.00;;;11.57;;
21152;SDS011;10734;44.792;20.482;2023-01-25T09:37:37;21.05;;;10.45;;
21152;SDS011;10734;44.792;20.482;2023-01-25T09:40:04;20.70;;;9.73;;
21152;SDS011;10734;44.792;20.482;2023-01-25T09:47:46;24.20;;;11.57;;
21152;SDS011;10734;44.792;20.482;2023-01-25T09:50:29;23.70;;;9.90;;
21152;SDS011;10734;44.792;20.482;2023-01-25T09:55:38;18.80;;;8.57;;
21152;SDS011;10734;44.792;20.482;2023-01-25T09:58:08;18.55;;;9.43;;
21152;SDS011;10734;44.792;20.482;2023-01-25T10:00:39;22.25;;;9.68;;
21152;SDS011;10734;44.792;20.482;2023-01-25T10:05:47;25.33;;;10.15;;
21152;SDS011;10734;44.792;20.482;2023-01-25T10:10:52;28.08;;;9.52;;
21152;SDS011;10734;44.792;20.482;2023-01-25T10:13:23;22.63;;;10.52;;
21152;SDS011;10734;44.792;20.482;2023-01-25T10:15:51;20.80;;;8.48;;
21152;SDS011;10734;44.792;20.482;2023-01-25T10:18:27;21.88;;;9.10;;
21152;SDS011;10734;44.792;20.482;2023-01-25T10:20:56;20.67;;;8.23;;
21152;SDS011;10734;44.792;20.482;2023-01-25T10:25:57;38.15;;;15.43;;
21152;SDS011;10734;44.792;20.482;2023-01-25T10:30:58;44.70;;;16.83;;
21152;SDS011;10734;44.792;20.482;2023-01-25T10:33:27;35.88;;;14.60;;
21152;SDS011;10734;44.792;20.482;2023-01-25T10:35:55;29.50;;;11.98;;
21152;SDS011;10734;44.792;20.482;2023-01-25T10:38:31;70.55;;;25.60;;
21152;SDS011;10734;44.792;20.482;2023-01-25T10:41:03;33.75;;;12.95;;
21152;SDS011;10734;44.792;20.482;2023-01-25T10:43:32;36.00;;;13.60;;
21152;SDS011;10734;44.792;20.482;2023-01-25T10:45:59;28.42;;;11.52;;
21152;SDS011;10734;44.792;20.482;2023-01-25T10:48:31;33.83;;;12.77;;
21152;SDS011;10734;44.792;20.482;2023-01-25T10:50:59;21.20;;;9.32;;
21152;SDS011;10734;44.792;20.482;2023-01-25T10:58:28;67.43;;;25.30;;
21152;SDS011;10734;44.792;20.482;2023-01-25T11:00:55;45.42;;;17.02;;
21152;SDS011;10734;44.792;20.482;2023-01-25T11:03:22;33.28;;;13.38;;
21152;SDS011;10734;44.792;20.482;2023-01-25T11:05:55;21.73;;;8.93;;
21152;SDS011;10734;44.792;20.482;2023-01-25T11:08:23;18.65;;;9.23;;
21152;SDS011;10734;44.792;20.482;2023-01-25T11:10:50;19.90;;;9.13;;
21152;SDS011;10734;44.792;20.482;2023-01-25T11:13:18;17.45;;;9.15;;
21152;SDS011;10734;44.792;20.482;2023-01-25T11:18:32;23.73;;;10.35;;
21152;SDS011;10734;44.792;20.482;2023-01-25T11:21:04;20.92;;;9.52;;
21152;SDS011;10734;44.792;20.482;2023-01-25T11:23:32;12.40;;;7.30;;
21152;SDS011;10734;44.792;20.482;2023-01-25T11:28:37;22.48;;;11.45;;
21152;SDS011;10734;44.792;20.482;2023-01-25T11:31:04;21.45;;;10.50;;
21152;SDS011;10734;44.792;20.482;2023-01-25T11:33:34;19.73;;;9.48;;
21152;SDS011;10734;44.792;20.482;2023-01-25T11:38:33;17.13;;;7.88;;
21152;SDS011;10734;44.792;20.482;2023-01-25T11:41:11;37.95;;;15.15;;
21152;SDS011;10734;44.792;20.482;2023-01-25T11:49:11;17.70;;;7.72;;
21152;SDS011;10734;44.792;20.482;2023-01-25T11:57:03;23.88;;;10.07;;
21152;SDS011;10734;44.792;20.482;2023-01-25T11:59:40;20.52;;;9.35;;
21152;SDS011;10734;44.792;20.482;2023-01-25T12:11:01;29.77;;;12.95;;
21152;SDS011;10734;44.792;20.482;2023-01-25T12:13:44;21.40;;;11.00;;
21152;SDS011;10734;44.792;20.482;2023-01-25T12:16:01;21.88;;;8.25;;
21152;SDS011;10734;44.792;20.482;2023-01-25T12:21:53;21.80;;;11.88;;
21152;SDS011;10734;44.792;20.482;2023-01-25T12:24:20;39.03;;;16.25;;
21152;SDS011;10734;44.792;20.482;2023-01-25T12:29:24;26.63;;;13.45;;
21152;SDS011;10734;44.792;20.482;2023-01-25T12:31:59;20.80;;;11.15;;
21152;SDS011;10734;44.792;20.482;2023-01-25T12:34:34;14.93;;;8.38;;
21152;SDS011;10734;44.792;20.482;2023-01-25T12:37:04;16.05;;;7.70;;
21152;SDS011;10734;44.792;20.482;2023-01-25T12:39:38;26.55;;;11.35;;
21152;SDS011;10734;44.792;20.482;2023-01-25T12:47:29;19.02;;;9.73;;
21152;SDS011;10734;44.792;20.482;2023-01-25T12:52:59;19.67;;;8.90;;
21152;SDS011;10734;44.792;20.482;2023-01-25T12:55:26;23.02;;;9.20;;
21152;SDS011;10734;44.792;20.482;2023-01-25T12:58:04;18.63;;;9.25;;
21152;SDS011;10734;44.792;20.482;2023-01-25T13:00:34;18.40;;;9.23;;
21152;SDS011;10734;44.792;20.482;2023-01-25T13:05:52;19.23;;;10.77;;
21152;SDS011;10734;44.792;20.482;2023-01-25T13:13:46;19.35;;;8.77;;
21152;SDS011;10734;44.792;20.482;2023-01-25T13:19:03;17.38;;;8.95;;
21152;SDS011;10734;44.792;20.482;2023-01-25T13:32:02;24.17;;;9.40;;
21152;SDS011;10734;44.792;20.482;2023-01-25T13:37:02;18.35;;;9.27;;
21152;SDS011;10734;44.792;20.482;2023-01-25T13:42:04;25.65;;;9.80;;
21152;SDS011;10734;44.792;20.482;2023-01-25T13:44:44;19.00;;;8.75;;
21152;SDS011;10734;44.792;20.482;2023-01-25T13:47:12;20.08;;;9.52;;
21152;SDS011;10734;44.792;20.482;2023-01-25T13:49:40;26.90;;;12.50;;
21152;SDS011;10734;44.792;20.482;2023-01-25T13:52:10;20.63;;;10.55;;
21152;SDS011;10734;44.792;20.482;2023-01-25T13:54:43;24.02;;;11.43;;
21152;SDS011;10734;44.792;20.482;2023-01-25T13:57:29;24.77;;;10.65;;
21152;SDS011;10734;44.792;20.482;2023-01-25T14:00:03;20.35;;;8.60;;
21152;SDS011;10734;44.792;20.482;2023-01-25T14:02:36;19.15;;;9.90;;
21152;SDS011;10734;44.792;20.482;2023-01-25T14:05:04;23.20;;;9.82;;
21152;SDS011;10734;44.792;20.482;2023-01-25T14:07:33;20.67;;;9.30;;
21152;SDS011;10734;44.792;20.482;2023-01-25T14:10:05;21.58;;;10.68;;
21152;SDS011;10734;44.792;20.482;2023-01-25T14:12:35;23.40;;;10.52;;
21152;SDS011;10734;44.792;20.482;2023-01-25T14:20:33;28.33;;;14.00;;
21152;SDS011;10734;44.792;20.482;2023-01-25T14:22:59;20.10;;;10.95;;
21152;SDS011;10734;44.792;20.482;2023-01-25T14:25:26;19.60;;;9.20;;
21152;SDS011;10734;44.792;20.482;2023-01-25T14:27:56;15.98;;;7.70;;
21152;SDS011;10734;44.792;20.482;2023-01-25T14:30:30;19.85;;;9.20;;
21152;SDS011;10734;44.792;20.482;2023-01-25T14:32:58;18.60;;;9.65;;
21152;SDS011;10734;44.792;20.482;2023-01-25T14:40:51;17.83;;;8.50;;
21152;SDS011;10734;44.792;20.482;2023-01-25T14:43:18;14.90;;;6.88;;
21152;SDS011;10734;44.792;20.482;2023-01-25T14:45:45;19.98;;;9.07;;
21152;SDS011;10734;44.792;20.482;2023-01-25T14:53:43;16.10;;;7.32;;
21152;SDS011;10734;44.792;20.482;2023-01-25T14:58:56;23.77;;;10.45;;
21152;SDS011;10734;44.792;20.482;2023-01-25T15:01:47;18.30;;;9.07;;
21152;SDS011;10734;44.792;20.482;2023-01-25T15:04:12;21.90;;;11.32;;
21152;SDS011;10734;44.792;20.482;2023-01-25T15:06:46;24.88;;;12.10;;
21152;SDS011;10734;44.792;20.482;2023-01-25T15:11:59;17.45;;;8.57;;
21152;SDS011;10734;44.792;20.482;2023-01-25T15:14:25;18.90;;;8.65;;
21152;SDS011;10734;44.792;20.482;2023-01-25T15:16:53;18.92;;;8.35;;
21152;SDS011;10734;44.792;20.482;2023-01-25T15:19:28;20.13;;;9.25;;
21152;SDS011;10734;44.792;20.482;2023-01-25T15:21:56;17.50;;;9.00;;
21152;SDS011;10734;44.792;20.482;2023-01-25T15:24:23;15.45;;;8.35;;
21152;SDS011;10734;44.792;20.482;2023-01-25T15:26:51;22.30;;;9.98;;
21152;SDS011;10734;44.792;20.482;2023-01-25T15:29:19;25.02;;;11.30;;
21152;SDS011;10734;44.792;20.482;2023-01-25T15:31:46;43.40;;;25.23;;
21152;SDS011;10734;44.792;20.482;2023-01-25T15:34:15;30.13;;;17.83;;
21152;SDS011;10734;44.792;20.482;2023-01-25T15:36:41;121.82;;;73.80;;
21152;SDS011;10734;44.792;20.482;2023-01-25T15:39:12;308.98;;;182.30;;
21152;SDS011;10734;44.792;20.482;2023-01-25T15:41:39;477.07;;;301.83;;
21152;SDS011;10734;44.792;20.482;2023-01-25T15:44:06;903.33;;;506.48;;
21152;SDS011;10734;44.792;20.482;2023-01-25T15:46:33;905.55;;;521.25;;
21152;SDS011;10734;44.792;20.482;2023-01-25T15:49:02;656.28;;;453.92;;
21152;SDS011;10734;44.792;20.482;2023-01-25T15:51:29;279.95;;;167.18;;
21152;SDS011;10734;44.792;20.482;2023-01-25T15:54:00;103.15;;;63.40;;
21152;SDS011;10734;44.792;20.482;2023-01-25T15:56:27;48.05;;;29.27;;
21152;SDS011;10734;44.792;20.482;2023-01-25T15:58:56;33.85;;;16.90;;
21152;SDS011;10734;44.792;20.482;2023-01-25T16:01:24;30.30;;;16.80;;
21152;SDS011;10734;44.792;20.482;2023-01-25T16:03:53;163.45;;;68.72;;
21152;SDS011;10734;44.792;20.482;2023-01-25T16:08:46;889.03;;;273.52;;
21152;SDS011;10734;44.792;20.482;2023-01-25T16:11:13;979.50;;;291.60;;
21152;SDS011;10734;44.792;20.482;2023-01-25T16:13:39;1957.30;;;602.40;;
21152;SDS011;10734;44.792;20.482;2023-01-25T16:16:22;1557.20;;;495.67;;
21152;SDS011;10734;44.792;20.482;2023-01-25T16:18:50;1169.75;;;395.52;;
21152;SDS011;10734;44.792;20.482;2023-01-25T16:21:16;1097.38;;;400.17;;
21152;SDS011;10734;44.792;20.482;2023-01-25T16:23:43;449.70;;;146.25;;
21152;SDS011;10734;44.792;20.482;2023-01-25T16:26:14;374.50;;;122.85;;
21152;SDS011;10734;44.792;20.482;2023-01-25T16:28:43;455.27;;;168.90;;